sensor_id;sensor_type;location;lat;lon;timestamp;P1;durP1;ratioP1;P2;durP2;ratioP2
81229;SDS011;70701;44.452;18.652;2023-07-20T00:01:46;10.90;;;5.78;;
81229;SDS011;70701;44.452;18.652;2023-07-20T00:04:13;10.48;;;5.38;;
81229;SDS011;70701;44.452;18.652;2023-07-20T00:06:39;8.70;;;4.70;;
81229;SDS011;70701;44.452;18.652;2023-07-20T00:09:07;12.15;;;5.53;;
81229;SDS011;70701;44.452;18.652;2023-07-20T00:11:35;13.48;;;5.50;;
81229;SDS011;70701;44.452;18.652;2023-07-20T00:14:06;11.70;;;5.30;;
81229;SDS011;70701;44.452;18.652;2023-07-20T00:16:32;11.13;;;5.63;;
81229;SDS011;70701;44.452;18.652;2023-07-20T00:18:58;8.55;;;5.10;;
81229;SDS011;70701;44.452;18.652;2023-07-20T00:21:24;14.68;;;8.77;;
81229;SDS011;70701;44.452;18.652;2023-07-20T00:23:50;15.43;;;9.43;;
81229;SDS011;70701;44.452;18.652;2023-07-20T00:26:15;10.77;;;5.82;;
81229;SDS011;70701;44.452;18.652;2023-07-20T00:28:41;10.82;;;5.60;;
81229;SDS011;70701;44.452;18.652;2023-07-20T00:31:07;11.68;;;5.60;;
81229;SDS011;70701;44.452;18.652;2023-07-20T00:33:33;11.40;;;5.00;;
81229;SDS011;70701;44.452;18.652;2023-07-20T00:35:58;10.75;;;4.93;;
81229;SDS011;70701;44.452;18.652;2023-07-20T00:38:24;12.60;;;6.97;;
81229;SDS011;70701;44.452;18.652;2023-07-20T00:40:50;10.77;;;6.07;;
81229;SDS011;70701;44.452;18.652;2023-07-20T00:43:17;10.45;;;5.80;;
81229;SDS011;70701;44.452;18.652;2023-07-20T00:45:42;12.85;;;5.47;;
81229;SDS011;70701;44.452;18.652;2023-07-20T00:48:10;10.13;;;5.47;;
81229;SDS011;70701;44.452;18.652;2023-07-20T00:50:36;13.90;;;6.15;;
81229;SDS011;70701;44.452;18.652;2023-07-20T00:53:02;11.02;;;5.20;;
81229;SDS011;70701;44.452;18.652;2023-07-20T00:55:31;9.65;;;4.90;;
81229;SDS011;70701;44.452;18.652;2023-07-20T00:57:57;14.57;;;5.40;;
81229;SDS011;70701;44.452;18.652;2023-07-20T01:00:24;10.45;;;4.97;;
81229;SDS011;70701;44.452;18.652;2023-07-20T01:02:51;15.43;;;4.90;;
81229;SDS011;70701;44.452;18.652;2023-07-20T01:05:17;9.55;;;5.07;;
81229;SDS011;70701;44.452;18.652;2023-07-20T01:07:46;10.75;;;5.18;;
81229;SDS011;70701;44.452;18.652;2023-07-20T01:10:25;9.93;;;5.18;;
81229;SDS011;70701;44.452;18.652;2023-07-20T01:13:31;9.90;;;5.68;;
81229;SDS011;70701;44.452;18.652;2023-07-20T01:16:01;9.27;;;5.53;;
81229;SDS011;70701;44.452;18.652;2023-07-20T01:18:27;10.48;;;5.95;;
81229;SDS011;70701;44.452;18.652;2023-07-20T01:20:54;12.25;;;7.18;;
81229;SDS011;70701;44.452;18.652;2023-07-20T01:23:32;13.70;;;6.22;;
81229;SDS011;70701;44.452;18.652;2023-07-20T01:29:08;13.80;;;6.57;;
81229;SDS011;70701;44.452;18.652;2023-07-20T01:31:35;11.63;;;6.60;;
81229;SDS011;70701;44.452;18.652;2023-07-20T01:34:03;13.13;;;7.05;;
81229;SDS011;70701;44.452;18.652;2023-07-20T01:36:33;14.05;;;7.55;;
81229;SDS011;70701;44.452;18.652;2023-07-20T01:39:00;17.33;;;7.07;;
81229;SDS011;70701;44.452;18.652;2023-07-20T01:41:27;14.23;;;7.05;;
81229;SDS011;70701;44.452;18.652;2023-07-20T01:43:53;12.75;;;6.55;;
81229;SDS011;70701;44.452;18.652;2023-07-20T01:46:23;12.18;;;6.55;;
81229;SDS011;70701;44.452;18.652;2023-07-20T01:48:49;14.57;;;6.60;;
81229;SDS011;70701;44.452;18.652;2023-07-20T01:51:15;9.30;;;5.53;;
81229;SDS011;70701;44.452;18.652;2023-07-20T01:53:43;11.75;;;5.43;;
81229;SDS011;70701;44.452;18.652;2023-07-20T01:56:08;9.82;;;6.30;;
81229;SDS011;70701;44.452;18.652;2023-07-20T01:58:35;11.73;;;6.45;;
81229;SDS011;70701;44.452;18.652;2023-07-20T02:01:00;13.13;;;7.53;;
81229;SDS011;70701;44.452;18.652;2023-07-20T02:03:27;15.77;;;9.63;;
81229;SDS011;70701;44.452;18.652;2023-07-20T02:05:52;15.27;;;11.38;;
81229;SDS011;70701;44.452;18.652;2023-07-20T02:08:18;16.98;;;11.30;;
81229;SDS011;70701;44.452;18.652;2023-07-20T02:10:47;29.83;;;19.55;;
81229;SDS011;70701;44.452;18.652;2023-07-20T02:13:13;28.00;;;18.77;;
81229;SDS011;70701;44.452;18.652;2023-07-20T02:15:39;20.50;;;15.75;;
81229;SDS011;70701;44.452;18.652;2023-07-20T02:18:05;30.27;;;17.90;;
81229;SDS011;70701;44.452;18.652;2023-07-20T02:20:33;24.33;;;17.10;;
81229;SDS011;70701;44.452;18.652;2023-07-20T02:22:59;21.20;;;15.48;;
81229;SDS011;70701;44.452;18.652;2023-07-20T02:25:26;17.42;;;13.15;;
81229;SDS011;70701;44.452;18.652;2023-07-20T02:27:52;18.75;;;12.70;;
81229;SDS011;70701;44.452;18.652;2023-07-20T02:30:18;13.02;;;9.32;;
81229;SDS011;70701;44.452;18.652;2023-07-20T02:32:43;15.75;;;8.30;;
81229;SDS011;70701;44.452;18.652;2023-07-20T02:35:11;10.15;;;6.72;;
81229;SDS011;70701;44.452;18.652;2023-07-20T02:37:38;9.40;;;5.90;;
81229;SDS011;70701;44.452;18.652;2023-07-20T02:40:04;11.18;;;6.53;;
81229;SDS011;70701;44.452;18.652;2023-07-20T02:42:30;10.60;;;5.70;;
81229;SDS011;70701;44.452;18.652;2023-07-20T02:44:56;8.70;;;5.47;;
81229;SDS011;70701;44.452;18.652;2023-07-20T02:47:21;8.85;;;4.80;;
81229;SDS011;70701;44.452;18.652;2023-07-20T02:49:47;8.00;;;3.47;;
81229;SDS011;70701;44.452;18.652;2023-07-20T02:52:13;5.93;;;3.08;;
81229;SDS011;70701;44.452;18.652;2023-07-20T02:54:39;10.63;;;3.38;;
81229;SDS011;70701;44.452;18.652;2023-07-20T02:57:05;7.85;;;3.08;;
81229;SDS011;70701;44.452;18.652;2023-07-20T02:59:31;11.23;;;4.05;;
81229;SDS011;70701;44.452;18.652;2023-07-20T03:01:57;7.15;;;3.65;;
81229;SDS011;70701;44.452;18.652;2023-07-20T03:04:23;7.90;;;3.10;;
81229;SDS011;70701;44.452;18.652;2023-07-20T03:06:52;8.43;;;3.00;;
81229;SDS011;70701;44.452;18.652;2023-07-20T03:09:18;8.23;;;3.40;;
81229;SDS011;70701;44.452;18.652;2023-07-20T03:11:44;6.05;;;3.33;;
81229;SDS011;70701;44.452;18.652;2023-07-20T03:14:11;4.88;;;2.47;;
81229;SDS011;70701;44.452;18.652;2023-07-20T03:16:38;4.13;;;2.22;;
81229;SDS011;70701;44.452;18.652;2023-07-20T03:19:04;6.05;;;2.55;;
81229;SDS011;70701;44.452;18.652;2023-07-20T03:21:30;5.13;;;2.10;;
81229;SDS011;70701;44.452;18.652;2023-07-20T03:23:55;7.10;;;2.45;;
81229;SDS011;70701;44.452;18.652;2023-07-20T03:26:22;6.78;;;2.30;;
81229;SDS011;70701;44.452;18.652;2023-07-20T03:28:48;5.43;;;2.83;;
81229;SDS011;70701;44.452;18.652;2023-07-20T03:31:14;6.55;;;2.20;;
81229;SDS011;70701;44.452;18.652;2023-07-20T03:33:40;7.68;;;2.22;;
81229;SDS011;70701;44.452;18.652;2023-07-20T03:36:06;7.65;;;2.33;;
81229;SDS011;70701;44.452;18.652;2023-07-20T03:38:32;5.78;;;1.80;;
81229;SDS011;70701;44.452;18.652;2023-07-20T03:40:59;6.82;;;2.13;;
81229;SDS011;70701;44.452;18.652;2023-07-20T03:43:25;6.03;;;2.60;;
81229;SDS011;70701;44.452;18.652;2023-07-20T03:45:52;8.30;;;4.10;;
81229;SDS011;70701;44.452;18.652;2023-07-20T03:48:20;7.53;;;3.38;;
81229;SDS011;70701;44.452;18.652;2023-07-20T03:50:48;5.32;;;2.40;;
81229;SDS011;70701;44.452;18.652;2023-07-20T03:53:16;7.97;;;2.55;;
81229;SDS011;70701;44.452;18.652;2023-07-20T03:55:46;8.63;;;3.20;;
81229;SDS011;70701;44.452;18.652;2023-07-20T04:00:46;7.00;;;2.60;;
81229;SDS011;70701;44.452;18.652;2023-07-20T04:03:12;7.18;;;2.50;;
81229;SDS011;70701;44.452;18.652;2023-07-20T04:05:39;8.20;;;2.92;;
81229;SDS011;70701;44.452;18.652;2023-07-20T04:08:05;7.60;;;2.70;;
81229;SDS011;70701;44.452;18.652;2023-07-20T04:10:30;8.07;;;2.85;;
81229;SDS011;70701;44.452;18.652;2023-07-20T04:12:56;6.40;;;2.70;;
81229;SDS011;70701;44.452;18.652;2023-07-20T04:15:21;6.57;;;2.85;;
81229;SDS011;70701;44.452;18.652;2023-07-20T04:17:47;8.13;;;3.10;;
81229;SDS011;70701;44.452;18.652;2023-07-20T04:20:14;7.18;;;2.88;;
81229;SDS011;70701;44.452;18.652;2023-07-20T04:22:39;8.25;;;3.00;;
81229;SDS011;70701;44.452;18.652;2023-07-20T04:25:08;7.13;;;2.83;;
81229;SDS011;70701;44.452;18.652;2023-07-20T04:27:35;9.32;;;2.65;;
81229;SDS011;70701;44.452;18.652;2023-07-20T04:30:02;7.05;;;2.45;;
81229;SDS011;70701;44.452;18.652;2023-07-20T04:32:29;4.75;;;2.03;;
81229;SDS011;70701;44.452;18.652;2023-07-20T04:34:56;7.03;;;2.78;;
81229;SDS011;70701;44.452;18.652;2023-07-20T04:37:21;6.88;;;3.05;;
81229;SDS011;70701;44.452;18.652;2023-07-20T04:39:48;7.53;;;3.35;;
81229;SDS011;70701;44.452;18.652;2023-07-20T04:42:15;7.30;;;4.22;;
81229;SDS011;70701;44.452;18.652;2023-07-20T04:44:41;8.80;;;2.40;;
81229;SDS011;70701;44.452;18.652;2023-07-20T04:47:08;9.85;;;3.75;;
81229;SDS011;70701;44.452;18.652;2023-07-20T04:49:36;10.90;;;2.88;;
81229;SDS011;70701;44.452;18.652;2023-07-20T04:52:02;9.10;;;3.10;;
81229;SDS011;70701;44.452;18.652;2023-07-20T04:54:29;6.45;;;3.13;;
81229;SDS011;70701;44.452;18.652;2023-07-20T04:56:54;8.05;;;2.70;;
81229;SDS011;70701;44.452;18.652;2023-07-20T04:59:21;8.10;;;2.80;;
81229;SDS011;70701;44.452;18.652;2023-07-20T05:01:47;9.43;;;4.78;;
81229;SDS011;70701;44.452;18.652;2023-07-20T05:04:14;11.07;;;5.07;;
81229;SDS011;70701;44.452;18.652;2023-07-20T05:06:40;9.23;;;4.00;;
81229;SDS011;70701;44.452;18.652;2023-07-20T05:09:06;9.68;;;5.15;;
81229;SDS011;70701;44.452;18.652;2023-07-20T05:11:32;7.53;;;4.30;;
81229;SDS011;70701;44.452;18.652;2023-07-20T05:13:59;9.70;;;3.65;;
81229;SDS011;70701;44.452;18.652;2023-07-20T05:16:25;9.35;;;4.35;;
81229;SDS011;70701;44.452;18.652;2023-07-20T05:18:50;7.13;;;3.50;;
81229;SDS011;70701;44.452;18.652;2023-07-20T05:21:16;8.95;;;3.10;;
81229;SDS011;70701;44.452;18.652;2023-07-20T05:23:42;7.68;;;3.05;;
81229;SDS011;70701;44.452;18.652;2023-07-20T05:26:08;6.00;;;2.80;;
81229;SDS011;70701;44.452;18.652;2023-07-20T05:28:34;7.68;;;3.72;;
81229;SDS011;70701;44.452;18.652;2023-07-20T05:31:02;12.35;;;4.40;;
81229;SDS011;70701;44.452;18.652;2023-07-20T05:33:28;6.88;;;3.22;;
81229;SDS011;70701;44.452;18.652;2023-07-20T05:35:54;7.50;;;2.88;;
81229;SDS011;70701;44.452;18.652;2023-07-20T05:38:20;31.42;;;20.52;;
81229;SDS011;70701;44.452;18.652;2023-07-20T05:40:45;6.72;;;3.38;;
81229;SDS011;70701;44.452;18.652;2023-07-20T05:43:12;9.52;;;4.60;;
81229;SDS011;70701;44.452;18.652;2023-07-20T05:45:42;12.88;;;4.05;;
81229;SDS011;70701;44.452;18.652;2023-07-20T05:48:10;8.07;;;3.03;;
81229;SDS011;70701;44.452;18.652;2023-07-20T05:50:37;7.85;;;3.50;;
81229;SDS011;70701;44.452;18.652;2023-07-20T05:53:03;8.82;;;6.10;;
81229;SDS011;70701;44.452;18.652;2023-07-20T05:55:29;9.20;;;4.32;;
81229;SDS011;70701;44.452;18.652;2023-07-20T05:57:54;13.60;;;5.63;;
81229;SDS011;70701;44.452;18.652;2023-07-20T06:00:21;8.57;;;3.97;;
81229;SDS011;70701;44.452;18.652;2023-07-20T06:02:53;7.03;;;3.95;;
81229;SDS011;70701;44.452;18.652;2023-07-20T06:05:20;7.13;;;3.63;;
81229;SDS011;70701;44.452;18.652;2023-07-20T06:07:49;8.40;;;3.50;;
81229;SDS011;70701;44.452;18.652;2023-07-20T06:10:15;5.32;;;3.10;;
81229;SDS011;70701;44.452;18.652;2023-07-20T06:12:41;7.53;;;3.42;;
81229;SDS011;70701;44.452;18.652;2023-07-20T06:15:23;6.07;;;3.25;;
81229;SDS011;70701;44.452;18.652;2023-07-20T06:17:54;7.82;;;3.67;;
81229;SDS011;70701;44.452;18.652;2023-07-20T06:20:21;6.13;;;3.35;;
81229;SDS011;70701;44.452;18.652;2023-07-20T06:22:47;7.47;;;4.20;;
81229;SDS011;70701;44.452;18.652;2023-07-20T06:25:13;6.28;;;3.08;;
81229;SDS011;70701;44.452;18.652;2023-07-20T06:27:42;6.03;;;2.97;;
81229;SDS011;70701;44.452;18.652;2023-07-20T06:30:08;5.60;;;2.90;;
81229;SDS011;70701;44.452;18.652;2023-07-20T06:32:34;7.40;;;3.53;;
81229;SDS011;70701;44.452;18.652;2023-07-20T06:35:00;9.27;;;5.05;;
81229;SDS011;70701;44.452;18.652;2023-07-20T06:37:25;8.32;;;4.00;;
81229;SDS011;70701;44.452;18.652;2023-07-20T06:39:51;8.93;;;2.90;;
81229;SDS011;70701;44.452;18.652;2023-07-20T06:42:17;9.63;;;3.88;;
81229;SDS011;70701;44.452;18.652;2023-07-20T06:44:43;7.70;;;3.70;;
81229;SDS011;70701;44.452;18.652;2023-07-20T06:47:09;9.20;;;4.97;;
81229;SDS011;70701;44.452;18.652;2023-07-20T06:49:34;10.15;;;5.72;;
81229;SDS011;70701;44.452;18.652;2023-07-20T06:52:01;10.63;;;6.40;;
81229;SDS011;70701;44.452;18.652;2023-07-20T06:54:26;11.00;;;5.70;;
81229;SDS011;70701;44.452;18.652;2023-07-20T06:56:52;10.93;;;4.75;;
81229;SDS011;70701;44.452;18.652;2023-07-20T06:59:18;10.80;;;5.60;;
81229;SDS011;70701;44.452;18.652;2023-07-20T07:01:44;8.23;;;4.20;;
81229;SDS011;70701;44.452;18.652;2023-07-20T07:04:09;9.90;;;6.22;;
81229;SDS011;70701;44.452;18.652;2023-07-20T07:06:35;9.13;;;4.32;;
81229;SDS011;70701;44.452;18.652;2023-07-20T07:09:02;14.88;;;9.25;;
81229;SDS011;70701;44.452;18.652;2023-07-20T07:11:28;8.27;;;4.53;;
81229;SDS011;70701;44.452;18.652;2023-07-20T07:13:54;9.05;;;5.50;;
81229;SDS011;70701;44.452;18.652;2023-07-20T07:16:21;11.00;;;6.40;;
81229;SDS011;70701;44.452;18.652;2023-07-20T07:18:49;9.18;;;3.95;;
81229;SDS011;70701;44.452;18.652;2023-07-20T07:21:16;11.02;;;4.63;;
81229;SDS011;70701;44.452;18.652;2023-07-20T07:23:41;9.52;;;3.85;;
81229;SDS011;70701;44.452;18.652;2023-07-20T07:26:09;9.95;;;3.90;;
81229;SDS011;70701;44.452;18.652;2023-07-20T07:28:35;6.32;;;3.30;;
81229;SDS011;70701;44.452;18.652;2023-07-20T07:31:04;5.50;;;3.22;;
81229;SDS011;70701;44.452;18.652;2023-07-20T07:33:34;9.20;;;4.72;;
81229;SDS011;70701;44.452;18.652;2023-07-20T07:36:00;13.82;;;7.53;;
81229;SDS011;70701;44.452;18.652;2023-07-20T07:38:26;5.97;;;3.33;;
81229;SDS011;70701;44.452;18.652;2023-07-20T07:40:51;9.70;;;3.50;;
81229;SDS011;70701;44.452;18.652;2023-07-20T07:43:17;8.73;;;3.35;;
81229;SDS011;70701;44.452;18.652;2023-07-20T07:45:44;7.38;;;3.50;;
81229;SDS011;70701;44.452;18.652;2023-07-20T07:48:10;11.05;;;3.83;;
81229;SDS011;70701;44.452;18.652;2023-07-20T07:50:37;7.15;;;3.83;;
81229;SDS011;70701;44.452;18.652;2023-07-20T07:53:05;10.40;;;5.03;;
81229;SDS011;70701;44.452;18.652;2023-07-20T07:55:32;18.80;;;6.88;;
81229;SDS011;70701;44.452;18.652;2023-07-20T07:57:58;10.25;;;4.00;;
81229;SDS011;70701;44.452;18.652;2023-07-20T08:00:24;10.73;;;3.83;;
81229;SDS011;70701;44.452;18.652;2023-07-20T08:02:50;8.10;;;3.25;;
81229;SDS011;70701;44.452;18.652;2023-07-20T08:05:15;8.07;;;3.20;;
81229;SDS011;70701;44.452;18.652;2023-07-20T08:07:42;12.20;;;5.93;;
81229;SDS011;70701;44.452;18.652;2023-07-20T08:10:08;11.73;;;4.82;;
81229;SDS011;70701;44.452;18.652;2023-07-20T08:12:34;14.98;;;8.80;;
81229;SDS011;70701;44.452;18.652;2023-07-20T08:15:00;10.50;;;6.75;;
81229;SDS011;70701;44.452;18.652;2023-07-20T08:17:26;8.57;;;4.53;;
81229;SDS011;70701;44.452;18.652;2023-07-20T08:19:52;8.20;;;3.95;;
81229;SDS011;70701;44.452;18.652;2023-07-20T08:22:18;6.50;;;3.20;;
81229;SDS011;70701;44.452;18.652;2023-07-20T08:24:44;14.48;;;3.70;;
81229;SDS011;70701;44.452;18.652;2023-07-20T08:27:10;8.63;;;3.13;;
81229;SDS011;70701;44.452;18.652;2023-07-20T08:29:36;5.72;;;3.25;;
81229;SDS011;70701;44.452;18.652;2023-07-20T08:32:03;11.05;;;6.00;;
81229;SDS011;70701;44.452;18.652;2023-07-20T08:34:29;7.90;;;3.83;;
81229;SDS011;70701;44.452;18.652;2023-07-20T08:36:56;8.15;;;3.28;;
81229;SDS011;70701;44.452;18.652;2023-07-20T08:39:25;6.22;;;3.38;;
81229;SDS011;70701;44.452;18.652;2023-07-20T08:41:51;6.00;;;2.70;;
81229;SDS011;70701;44.452;18.652;2023-07-20T08:44:19;5.97;;;2.60;;
81229;SDS011;70701;44.452;18.652;2023-07-20T08:46:45;5.90;;;2.50;;
81229;SDS011;70701;44.452;18.652;2023-07-20T08:49:14;6.03;;;2.65;;
81229;SDS011;70701;44.452;18.652;2023-07-20T08:51:41;8.15;;;2.92;;
81229;SDS011;70701;44.452;18.652;2023-07-20T08:54:08;6.72;;;2.50;;
81229;SDS011;70701;44.452;18.652;2023-07-20T08:56:36;6.35;;;2.58;;
81229;SDS011;70701;44.452;18.652;2023-07-20T08:59:03;6.80;;;2.55;;
81229;SDS011;70701;44.452;18.652;2023-07-20T09:01:30;6.65;;;2.58;;
81229;SDS011;70701;44.452;18.652;2023-07-20T09:03:57;7.20;;;3.00;;
81229;SDS011;70701;44.452;18.652;2023-07-20T09:06:23;5.15;;;2.40;;
81229;SDS011;70701;44.452;18.652;2023-07-20T09:08:48;6.05;;;2.60;;
81229;SDS011;70701;44.452;18.652;2023-07-20T09:11:14;5.75;;;2.70;;
81229;SDS011;70701;44.452;18.652;2023-07-20T09:13:40;7.35;;;2.80;;
81229;SDS011;70701;44.452;18.652;2023-07-20T09:16:06;12.35;;;7.45;;
81229;SDS011;70701;44.452;18.652;2023-07-20T09:18:32;9.43;;;3.38;;
81229;SDS011;70701;44.452;18.652;2023-07-20T09:21:04;6.60;;;2.60;;
81229;SDS011;70701;44.452;18.652;2023-07-20T09:23:37;12.50;;;3.90;;
81229;SDS011;70701;44.452;18.652;2023-07-20T09:26:13;6.90;;;3.33;;
81229;SDS011;70701;44.452;18.652;2023-07-20T09:28:51;6.78;;;3.40;;
81229;SDS011;70701;44.452;18.652;2023-07-20T09:31:18;10.38;;;2.95;;
81229;SDS011;70701;44.452;18.652;2023-07-20T09:33:45;8.73;;;2.50;;
81229;SDS011;70701;44.452;18.652;2023-07-20T09:36:12;7.90;;;2.78;;
81229;SDS011;70701;44.452;18.652;2023-07-20T09:38:38;4.85;;;2.25;;
81229;SDS011;70701;44.452;18.652;2023-07-20T09:41:06;4.97;;;2.28;;
81229;SDS011;70701;44.452;18.652;2023-07-20T09:43:33;6.07;;;2.28;;
81229;SDS011;70701;44.452;18.652;2023-07-20T09:46:00;6.25;;;2.30;;
81229;SDS011;70701;44.452;18.652;2023-07-20T09:48:26;6.07;;;2.65;;
81229;SDS011;70701;44.452;18.652;2023-07-20T09:50:52;5.40;;;2.35;;
81229;SDS011;70701;44.452;18.652;2023-07-20T09:53:18;7.00;;;2.40;;
81229;SDS011;70701;44.452;18.652;2023-07-20T09:55:46;7.18;;;2.30;;
81229;SDS011;70701;44.452;18.652;2023-07-20T09:58:15;6.50;;;2.40;;
81229;SDS011;70701;44.452;18.652;2023-07-20T10:00:42;7.85;;;2.47;;
81229;SDS011;70701;44.452;18.652;2023-07-20T10:03:13;10.25;;;3.85;;
81229;SDS011;70701;44.452;18.652;2023-07-20T10:05:43;7.35;;;2.95;;
81229;SDS011;70701;44.452;18.652;2023-07-20T10:08:12;7.65;;;2.80;;
81229;SDS011;70701;44.452;18.652;2023-07-20T10:10:41;5.65;;;2.45;;
81229;SDS011;70701;44.452;18.652;2023-07-20T10:13:12;5.28;;;2.28;;
81229;SDS011;70701;44.452;18.652;2023-07-20T10:16:01;5.63;;;2.45;;
81229;SDS011;70701;44.452;18.652;2023-07-20T10:18:41;4.65;;;1.88;;
81229;SDS011;70701;44.452;18.652;2023-07-20T10:21:15;6.82;;;2.38;;
81229;SDS011;70701;44.452;18.652;2023-07-20T10:23:42;8.45;;;2.30;;
81229;SDS011;70701;44.452;18.652;2023-07-20T10:26:08;6.53;;;2.53;;
81229;SDS011;70701;44.452;18.652;2023-07-20T10:28:36;6.57;;;3.17;;
81229;SDS011;70701;44.452;18.652;2023-07-20T10:31:02;5.40;;;2.22;;
81229;SDS011;70701;44.452;18.652;2023-07-20T10:33:28;7.35;;;2.42;;
81229;SDS011;70701;44.452;18.652;2023-07-20T10:35:59;6.25;;;2.50;;
81229;SDS011;70701;44.452;18.652;2023-07-20T10:43:47;6.15;;;2.85;;
81229;SDS011;70701;44.452;18.652;2023-07-20T10:46:13;5.68;;;2.55;;
81229;SDS011;70701;44.452;18.652;2023-07-20T10:51:24;5.53;;;2.53;;
81229;SDS011;70701;44.452;18.652;2023-07-20T10:53:52;4.57;;;2.40;;
81229;SDS011;70701;44.452;18.652;2023-07-20T10:56:20;5.90;;;2.60;;
81229;SDS011;70701;44.452;18.652;2023-07-20T10:58:47;6.60;;;2.90;;
81229;SDS011;70701;44.452;18.652;2023-07-20T11:01:15;5.82;;;2.33;;
81229;SDS011;70701;44.452;18.652;2023-07-20T11:03:42;9.27;;;2.65;;
81229;SDS011;70701;44.452;18.652;2023-07-20T11:11:37;6.93;;;2.83;;
81229;SDS011;70701;44.452;18.652;2023-07-20T11:14:05;6.60;;;3.70;;
81229;SDS011;70701;44.452;18.652;2023-07-20T11:16:37;9.27;;;4.88;;
81229;SDS011;70701;44.452;18.652;2023-07-20T11:19:04;7.70;;;2.63;;
81229;SDS011;70701;44.452;18.652;2023-07-20T11:21:37;6.13;;;2.92;;
81229;SDS011;70701;44.452;18.652;2023-07-20T11:24:06;7.22;;;3.33;;
81229;SDS011;70701;44.452;18.652;2023-07-20T11:26:43;9.93;;;5.75;;
81229;SDS011;70701;44.452;18.652;2023-07-20T11:29:11;17.70;;;11.38;;
81229;SDS011;70701;44.452;18.652;2023-07-20T11:31:38;15.50;;;10.00;;
81229;SDS011;70701;44.452;18.652;2023-07-20T11:34:05;15.48;;;10.90;;
81229;SDS011;70701;44.452;18.652;2023-07-20T11:36:33;16.70;;;11.27;;
81229;SDS011;70701;44.452;18.652;2023-07-20T11:38:59;12.07;;;6.05;;
81229;SDS011;70701;44.452;18.652;2023-07-20T11:41:25;9.00;;;5.20;;
81229;SDS011;70701;44.452;18.652;2023-07-20T11:43:52;8.45;;;5.07;;
81229;SDS011;70701;44.452;18.652;2023-07-20T11:46:18;7.88;;;3.65;;
81229;SDS011;70701;44.452;18.652;2023-07-20T11:48:45;7.00;;;3.53;;
81229;SDS011;70701;44.452;18.652;2023-07-20T11:51:16;8.65;;;3.90;;
81229;SDS011;70701;44.452;18.652;2023-07-20T11:53:43;12.68;;;8.82;;
81229;SDS011;70701;44.452;18.652;2023-07-20T11:56:12;16.73;;;11.98;;
81229;SDS011;70701;44.452;18.652;2023-07-20T11:58:56;15.60;;;11.55;;
81229;SDS011;70701;44.452;18.652;2023-07-20T12:01:25;17.60;;;12.45;;
81229;SDS011;70701;44.452;18.652;2023-07-20T12:04:03;12.55;;;10.05;;
81229;SDS011;70701;44.452;18.652;2023-07-20T12:06:32;10.52;;;6.32;;
81229;SDS011;70701;44.452;18.652;2023-07-20T12:08:58;8.20;;;4.60;;
81229;SDS011;70701;44.452;18.652;2023-07-20T12:11:36;7.78;;;4.32;;
81229;SDS011;70701;44.452;18.652;2023-07-20T12:14:03;8.45;;;5.10;;
81229;SDS011;70701;44.452;18.652;2023-07-20T12:16:34;8.18;;;4.80;;
81229;SDS011;70701;44.452;18.652;2023-07-20T12:21:34;9.63;;;4.50;;
81229;SDS011;70701;44.452;18.652;2023-07-20T12:24:04;7.22;;;4.05;;
81229;SDS011;70701;44.452;18.652;2023-07-20T12:26:30;7.05;;;4.43;;
81229;SDS011;70701;44.452;18.652;2023-07-20T12:28:57;7.03;;;4.10;;
81229;SDS011;70701;44.452;18.652;2023-07-20T12:31:24;6.80;;;4.25;;
81229;SDS011;70701;44.452;18.652;2023-07-20T12:33:52;7.47;;;3.95;;
81229;SDS011;70701;44.452;18.652;2023-07-20T12:36:20;7.05;;;3.97;;
81229;SDS011;70701;44.452;18.652;2023-07-20T12:38:46;6.35;;;3.70;;
81229;SDS011;70701;44.452;18.652;2023-07-20T12:41:12;9.32;;;4.75;;
81229;SDS011;70701;44.452;18.652;2023-07-20T12:43:39;8.65;;;4.57;;
81229;SDS011;70701;44.452;18.652;2023-07-20T12:46:10;6.65;;;4.25;;
81229;SDS011;70701;44.452;18.652;2023-07-20T12:48:39;7.35;;;4.00;;
81229;SDS011;70701;44.452;18.652;2023-07-20T12:51:10;7.63;;;4.45;;
81229;SDS011;70701;44.452;18.652;2023-07-20T12:53:39;7.28;;;3.80;;
81229;SDS011;70701;44.452;18.652;2023-07-20T12:56:05;5.72;;;3.60;;
81229;SDS011;70701;44.452;18.652;2023-07-20T12:58:30;5.75;;;3.72;;
81229;SDS011;70701;44.452;18.652;2023-07-20T13:00:56;5.60;;;3.60;;
81229;SDS011;70701;44.452;18.652;2023-07-20T13:03:22;6.25;;;3.42;;
81229;SDS011;70701;44.452;18.652;2023-07-20T13:05:47;6.45;;;3.60;;
81229;SDS011;70701;44.452;18.652;2023-07-20T13:08:14;6.30;;;3.72;;
81229;SDS011;70701;44.452;18.652;2023-07-20T13:10:40;16.20;;;10.73;;
81229;SDS011;70701;44.452;18.652;2023-07-20T13:13:06;16.65;;;12.20;;
81229;SDS011;70701;44.452;18.652;2023-07-20T13:15:32;18.85;;;14.32;;
81229;SDS011;70701;44.452;18.652;2023-07-20T13:20:31;8.90;;;6.15;;
81229;SDS011;70701;44.452;18.652;2023-07-20T13:22:56;7.32;;;4.70;;
81229;SDS011;70701;44.452;18.652;2023-07-20T13:25:22;7.72;;;5.50;;
81229;SDS011;70701;44.452;18.652;2023-07-20T13:27:48;12.88;;;10.60;;
81229;SDS011;70701;44.452;18.652;2023-07-20T13:30:14;35.47;;;30.17;;
81229;SDS011;70701;44.452;18.652;2023-07-20T13:32:42;37.42;;;29.30;;
81229;SDS011;70701;44.452;18.652;2023-07-20T13:35:09;19.45;;;14.50;;
81229;SDS011;70701;44.452;18.652;2023-07-20T13:37:35;13.38;;;10.20;;
81229;SDS011;70701;44.452;18.652;2023-07-20T13:40:01;10.10;;;5.68;;
81229;SDS011;70701;44.452;18.652;2023-07-20T13:42:30;7.57;;;5.72;;
81229;SDS011;70701;44.452;18.652;2023-07-20T13:44:55;12.38;;;7.13;;
81229;SDS011;70701;44.452;18.652;2023-07-20T13:47:21;7.53;;;5.00;;
81229;SDS011;70701;44.452;18.652;2023-07-20T13:49:47;11.45;;;8.07;;
81229;SDS011;70701;44.452;18.652;2023-07-20T13:52:13;9.23;;;5.20;;
81229;SDS011;70701;44.452;18.652;2023-07-20T13:54:39;25.63;;;20.48;;
81229;SDS011;70701;44.452;18.652;2023-07-20T13:57:04;13.93;;;10.35;;
81229;SDS011;70701;44.452;18.652;2023-07-20T13:59:30;12.15;;;9.77;;
81229;SDS011;70701;44.452;18.652;2023-07-20T14:01:56;12.50;;;9.18;;
81229;SDS011;70701;44.452;18.652;2023-07-20T14:04:21;10.50;;;7.10;;
81229;SDS011;70701;44.452;18.652;2023-07-20T14:06:47;7.75;;;5.00;;
81229;SDS011;70701;44.452;18.652;2023-07-20T14:09:13;9.25;;;6.55;;
81229;SDS011;70701;44.452;18.652;2023-07-20T14:11:38;22.42;;;18.35;;
81229;SDS011;70701;44.452;18.652;2023-07-20T14:14:04;28.83;;;24.00;;
81229;SDS011;70701;44.452;18.652;2023-07-20T14:16:30;15.95;;;12.60;;
81229;SDS011;70701;44.452;18.652;2023-07-20T14:18:57;9.32;;;6.95;;
81229;SDS011;70701;44.452;18.652;2023-07-20T14:21:23;7.30;;;5.20;;
81229;SDS011;70701;44.452;18.652;2023-07-20T14:23:50;8.75;;;6.32;;
81229;SDS011;70701;44.452;18.652;2023-07-20T14:26:18;8.68;;;5.35;;
81229;SDS011;70701;44.452;18.652;2023-07-20T14:28:43;8.15;;;5.40;;
81229;SDS011;70701;44.452;18.652;2023-07-20T14:31:09;7.63;;;5.65;;
81229;SDS011;70701;44.452;18.652;2023-07-20T14:33:35;7.97;;;4.88;;
81229;SDS011;70701;44.452;18.652;2023-07-20T14:36:01;9.00;;;4.70;;
81229;SDS011;70701;44.452;18.652;2023-07-20T14:38:52;9.10;;;5.30;;
81229;SDS011;70701;44.452;18.652;2023-07-20T14:41:19;8.75;;;5.45;;
81229;SDS011;70701;44.452;18.652;2023-07-20T14:43:44;9.27;;;5.70;;
81229;SDS011;70701;44.452;18.652;2023-07-20T14:46:10;7.97;;;5.32;;
81229;SDS011;70701;44.452;18.652;2023-07-20T14:48:35;7.65;;;5.40;;
81229;SDS011;70701;44.452;18.652;2023-07-20T14:51:01;6.95;;;4.63;;
81229;SDS011;70701;44.452;18.652;2023-07-20T14:53:28;8.40;;;4.55;;